createdAt,value
2023-09-21T00:01:07.136Z,21.30
2023-09-21T00:03:38.266Z,21.30
2023-09-21T00:06:06.386Z,21.30
2023-09-21T00:08:33.850Z,21.30
2023-09-21T00:11:02.762Z,21.30
2023-09-21T00:13:32.423Z,21.30
2023-09-21T00:16:00.899Z,21.30
2023-09-21T00:18:28.323Z,21.30
2023-09-21T00:20:55.415Z,21.30
2023-09-21T00:23:26.336Z,21.30
2023-09-21T00:26:03.398Z,21.30
2023-09-21T00:28:30.947Z,21.30
2023-09-21T00:30:59.253Z,21.40
2023-09-21T00:33:30.125Z,21.30
2023-09-21T00:36:05.424Z,21.30
2023-09-21T00:38:32.465Z,21.30
2023-09-21T00:41:05.951Z,21.30
2023-09-21T00:43:33.316Z,21.30
2023-09-21T00:46:04.748Z,21.30
2023-09-21T00:48:35.299Z,21.30
2023-09-21T00:51:08.004Z,21.30
2023-09-21T00:53:35.647Z,21.30
2023-09-21T00:56:09.587Z,21.30
2023-09-21T00:58:45.655Z,21.30
2023-09-21T01:01:19.495Z,21.30
2023-09-21T01:03:47.715Z,21.30
2023-09-21T01:06:19.912Z,21.30
2023-09-21T01:08:49.802Z,21.30
2023-09-21T01:11:17.959Z,21.30
2023-09-21T01:13:44.797Z,21.30
2023-09-21T01:16:16.772Z,21.30
2023-09-21T01:18:44.631Z,21.30
2023-09-21T01:21:14.881Z,21.30
2023-09-21T01:23:50.896Z,21.40
2023-09-21T01:26:19.137Z,21.30
2023-09-21T01:28:47.283Z,21.30
2023-09-21T01:31:14.890Z,21.30
2023-09-21T01:33:43.527Z,21.30
2023-09-21T01:36:13.342Z,21.30
2023-09-21T01:38:45.375Z,21.30
2023-09-21T01:41:14.813Z,21.30
2023-09-21T01:43:42.673Z,21.40
2023-09-21T01:46:10.290Z,21.30
2023-09-21T01:48:38.139Z,21.40
2023-09-21T01:51:06.759Z,21.30
2023-09-21T01:53:34.052Z,21.40
2023-09-21T01:56:01.097Z,21.30
2023-09-21T01:58:27.989Z,21.30
2023-09-21T02:00:55.788Z,21.30
2023-09-21T02:03:29.451Z,21.30
2023-09-21T02:05:59.671Z,21.30
2023-09-21T02:08:28.029Z,21.30
2023-09-21T02:10:54.994Z,21.30
2023-09-21T02:13:21.864Z,21.30
2023-09-21T02:15:52.351Z,21.30
2023-09-21T02:18:20.416Z,21.30
2023-09-21T02:20:55.215Z,21.20
2023-09-21T02:23:23.429Z,21.20
2023-09-21T02:25:54.220Z,21.20
2023-09-21T02:28:23.766Z,21.20
2023-09-21T02:30:51.373Z,21.20
2023-09-21T02:33:18.859Z,21.20
2023-09-21T02:35:47.993Z,21.20
2023-09-21T02:38:17.668Z,21.20
2023-09-21T02:40:46.853Z,21.20
2023-09-21T02:43:16.167Z,21.20
2023-09-21T02:45:45.989Z,21.20
2023-09-21T02:48:13.447Z,21.20
2023-09-21T02:50:41.084Z,21.20
2023-09-21T02:53:14.405Z,21.10
2023-09-21T02:55:43.595Z,21.10
2023-09-21T02:58:12.810Z,21.20
2023-09-21T03:00:55.825Z,21.10
2023-09-21T03:03:23.447Z,21.10
2023-09-21T03:05:53.276Z,21.10
2023-09-21T03:08:20.803Z,21.10
2023-09-21T03:10:51.401Z,21.00
2023-09-21T03:13:21.082Z,21.00
2023-09-21T03:15:51.554Z,21.00
2023-09-21T03:18:22.440Z,21.00
2023-09-21T03:20:52.979Z,21.00
2023-09-21T03:23:19.955Z,21.00
2023-09-21T03:25:50.937Z,20.90
2023-09-21T03:28:19.146Z,20.90
2023-09-21T03:30:48.651Z,20.90
2023-09-21T03:33:18.219Z,20.90
2023-09-21T03:35:45.809Z,20.90
2023-09-21T03:38:16.160Z,20.90
2023-09-21T03:40:44.557Z,20.90
2023-09-21T03:43:13.499Z,20.80
2023-09-21T03:45:42.703Z,20.90
2023-09-21T03:48:10.677Z,20.90
2023-09-21T03:50:40.017Z,20.80
2023-09-21T03:53:10.132Z,20.80
2023-09-21T03:55:39.530Z,20.80
2023-09-21T03:58:06.698Z,20.80
2023-09-21T04:00:36.361Z,20.80
2023-09-21T04:03:11.092Z,20.80
2023-09-21T04:05:52.195Z,20.70
2023-09-21T04:08:18.918Z,20.70
2023-09-21T04:10:46.473Z,20.70
2023-09-21T04:13:13.248Z,20.70
2023-09-21T04:15:40.166Z,20.70
2023-09-21T04:18:09.331Z,20.70
2023-09-21T04:20:38.623Z,20.70
2023-09-21T04:23:05.449Z,20.70
2023-09-21T04:25:33.824Z,20.70
2023-09-21T04:28:02.538Z,20.70
2023-09-21T04:30:29.499Z,20.70
2023-09-21T04:32:58.192Z,20.60
2023-09-21T04:35:25.142Z,20.70
2023-09-21T04:37:52.677Z,20.70
2023-09-21T04:40:19.876Z,20.60
2023-09-21T04:42:48.021Z,20.60
2023-09-21T04:45:22.732Z,20.60
2023-09-21T04:47:54.406Z,20.60
2023-09-21T04:50:22.429Z,20.60
2023-09-21T04:52:50.029Z,20.60
2023-09-21T04:55:18.311Z,20.60
2023-09-21T04:57:46.801Z,20.60
2023-09-21T05:00:15.573Z,20.60
2023-09-21T05:02:43.882Z,20.60
2023-09-21T05:05:15.617Z,20.60
2023-09-21T05:07:43.376Z,20.60
2023-09-21T05:10:13.351Z,20.60
2023-09-21T05:12:40.674Z,20.60
2023-09-21T05:15:09.510Z,20.60
2023-09-21T05:17:40.812Z,20.60
2023-09-21T05:20:10.664Z,20.60
2023-09-21T05:22:40.892Z,20.60
2023-09-21T05:25:08.622Z,20.70
2023-09-21T05:27:35.359Z,20.70
2023-09-21T05:30:06.188Z,20.70
2023-09-21T05:32:36.718Z,20.70
2023-09-21T05:35:08.828Z,20.70
2023-09-21T05:37:38.155Z,20.70
2023-09-21T05:40:06.917Z,20.60
2023-09-21T05:42:34.123Z,20.70
2023-09-21T05:45:00.910Z,20.70
2023-09-21T05:47:28.071Z,20.70
2023-09-21T05:49:55.493Z,20.70
2023-09-21T05:52:22.800Z,20.70
2023-09-21T05:54:49.598Z,20.80
2023-09-21T05:57:17.005Z,20.70
2023-09-21T05:59:44.339Z,20.80
2023-09-21T06:02:14.943Z,20.80
2023-09-21T06:04:44.710Z,20.80
2023-09-21T06:07:11.866Z,20.80
2023-09-21T06:09:38.596Z,20.80
2023-09-21T06:12:08.323Z,20.80
2023-09-21T06:14:37.415Z,20.90
2023-09-21T06:17:06.832Z,20.90
2023-09-21T06:19:34.426Z,21.00
2023-09-21T06:22:02.058Z,20.90
2023-09-21T06:24:29.014Z,21.00
2023-09-21T06:26:55.915Z,21.00
2023-09-21T06:29:24.186Z,21.00
2023-09-21T06:32:11.354Z,21.00
2023-09-21T06:34:42.591Z,21.10
2023-09-21T06:37:09.931Z,21.20
2023-09-21T06:39:36.763Z,21.20
2023-09-21T06:42:04.117Z,21.20
2023-09-21T06:44:32.316Z,21.20
2023-09-21T06:46:59.261Z,21.30
2023-09-21T06:49:27.750Z,21.40
2023-09-21T06:51:55.289Z,21.50
2023-09-21T06:54:24.806Z,21.50
2023-09-21T06:56:52.398Z,21.60
2023-09-21T06:59:19.502Z,21.70
2023-09-21T07:01:46.206Z,21.80
2023-09-21T07:04:13.024Z,21.90
2023-09-21T07:06:40.902Z,22.20
2023-09-21T07:09:07.820Z,22.10
2023-09-21T07:11:34.827Z,22.20
2023-09-21T07:14:04.876Z,22.40
2023-09-21T07:16:31.749Z,22.60
2023-09-21T07:18:58.984Z,22.90
2023-09-21T07:21:25.829Z,23.10
2023-09-21T07:23:52.728Z,23.40
2023-09-21T07:26:19.979Z,23.70
2023-09-21T07:28:47.107Z,23.90
2023-09-21T07:31:14.624Z,24.30
2023-09-21T07:33:41.618Z,24.60
2023-09-21T07:36:09.958Z,24.90
2023-09-21T07:38:37.911Z,25.20
2023-09-21T07:41:07.270Z,25.50
2023-09-21T07:43:34.573Z,25.80
2023-09-21T07:46:02.514Z,26.20
2023-09-21T07:48:30.856Z,26.40
2023-09-21T07:50:57.994Z,26.70
2023-09-21T07:53:24.866Z,27.00
2023-09-21T07:56:06.625Z,27.00
2023-09-21T07:58:33.409Z,27.10
2023-09-21T08:01:00.153Z,27.10
2023-09-21T08:03:29.228Z,27.10
2023-09-21T08:05:56.697Z,27.00
2023-09-21T08:08:26.168Z,27.00
2023-09-21T08:10:57.282Z,27.00
2023-09-21T08:13:26.496Z,27.10
2023-09-21T08:15:53.508Z,27.20
2023-09-21T08:18:20.836Z,27.40
2023-09-21T08:20:47.689Z,27.70
2023-09-21T08:23:15.493Z,28.10
2023-09-21T08:25:42.812Z,28.40
2023-09-21T08:28:10.096Z,28.90
2023-09-21T08:30:39.411Z,29.10
2023-09-21T08:33:08.622Z,29.50
2023-09-21T08:35:35.916Z,29.90
2023-09-21T08:38:04.404Z,30.10
2023-09-21T08:40:34.294Z,30.30
2023-09-21T08:43:02.847Z,30.50
2023-09-21T08:45:29.779Z,30.80
2023-09-21T08:47:57.828Z,31.00
2023-09-21T08:50:27.058Z,31.20
2023-09-21T08:52:55.393Z,31.40
2023-09-21T08:55:26.152Z,31.50
2023-09-21T08:57:54.337Z,31.60
2023-09-21T09:00:24.631Z,31.60
2023-09-21T09:02:52.332Z,31.60
2023-09-21T09:05:19.570Z,31.50
2023-09-21T09:07:46.324Z,31.40
2023-09-21T09:10:14.196Z,31.40
2023-09-21T09:12:42.153Z,31.40
2023-09-21T09:15:11.130Z,31.30
2023-09-21T09:17:38.559Z,31.20
2023-09-21T09:20:07.142Z,31.20
2023-09-21T09:22:35.696Z,31.30
2023-09-21T09:25:07.922Z,31.30
2023-09-21T09:27:35.786Z,31.20
2023-09-21T09:30:05.517Z,31.10
2023-09-21T09:32:42.567Z,31.00
2023-09-21T09:35:14.773Z,30.90
2023-09-21T09:37:43.721Z,30.90
2023-09-21T09:40:13.568Z,30.80
2023-09-21T09:42:41.774Z,30.70
2023-09-21T09:45:17.764Z,30.70
2023-09-21T09:47:52.100Z,30.60
2023-09-21T09:50:25.613Z,30.50
2023-09-21T09:53:07.719Z,30.40
2023-09-21T09:55:37.073Z,30.40
2023-09-21T09:58:04.941Z,30.30
2023-09-21T10:00:32.012Z,30.20
2023-09-21T10:03:00.225Z,30.10
2023-09-21T10:05:28.858Z,30.00
2023-09-21T10:08:03.253Z,29.90
2023-09-21T10:10:33.243Z,29.80
2023-09-21T10:13:00.416Z,29.70
2023-09-21T10:15:27.525Z,29.60
2023-09-21T10:17:58.802Z,29.50
2023-09-21T10:20:28.726Z,29.40
2023-09-21T10:22:56.743Z,29.30
2023-09-21T10:25:45.421Z,29.20
2023-09-21T10:28:30.098Z,29.10
2023-09-21T10:31:10.303Z,29.00
2023-09-21T10:33:37.745Z,28.90
2023-09-21T10:36:04.762Z,28.80
2023-09-21T10:38:31.638Z,28.80
2023-09-21T10:40:58.385Z,28.70
2023-09-21T10:43:40.165Z,28.60
2023-09-21T10:46:21.745Z,28.50
2023-09-21T10:48:57.981Z,28.40
2023-09-21T10:51:26.267Z,28.40
2023-09-21T10:53:55.927Z,28.30
2023-09-21T10:56:24.375Z,28.30
2023-09-21T10:58:51.305Z,28.20
2023-09-21T11:01:19.369Z,28.20
2023-09-21T11:03:49.980Z,28.20
2023-09-21T11:06:20.411Z,28.10
2023-09-21T11:08:48.408Z,28.10
2023-09-21T11:11:20.998Z,28.00
2023-09-21T11:13:51.518Z,28.00
2023-09-21T11:16:19.736Z,27.90
2023-09-21T11:18:47.974Z,27.90
2023-09-21T11:21:17.169Z,27.90
2023-09-21T11:23:44.263Z,27.80
2023-09-21T11:26:16.002Z,27.80
2023-09-21T11:28:44.226Z,27.80
2023-09-21T11:31:13.672Z,27.80
2023-09-21T11:33:42.149Z,27.80
2023-09-21T11:36:09.695Z,27.90
2023-09-21T11:38:37.336Z,27.90
2023-09-21T11:41:07.094Z,28.00
2023-09-21T11:43:33.849Z,28.00
2023-09-21T11:46:04.386Z,28.00
2023-09-21T11:48:32.738Z,28.00
2023-09-21T11:51:00.336Z,28.00
2023-09-21T11:53:29.613Z,28.00
2023-09-21T11:55:56.428Z,28.10
2023-09-21T11:58:23.968Z,28.10
2023-09-21T12:01:06.157Z,28.10
2023-09-21T12:03:34.818Z,28.10
2023-09-21T12:06:05.111Z,28.20
2023-09-21T12:08:32.994Z,28.10
2023-09-21T12:10:59.959Z,28.10
2023-09-21T12:13:26.867Z,28.10
2023-09-21T12:15:57.608Z,28.00
2023-09-21T12:18:28.124Z,28.00
2023-09-21T12:20:58.484Z,28.00
2023-09-21T12:23:27.212Z,28.00
2023-09-21T12:25:57.040Z,28.00
2023-09-21T12:28:24.109Z,27.90
2023-09-21T12:30:53.326Z,27.90
2023-09-21T12:35:51.237Z,27.80
2023-09-21T12:38:17.986Z,27.90
2023-09-21T12:40:45.259Z,27.70
2023-09-21T12:43:11.938Z,27.70
2023-09-21T12:45:38.943Z,27.60
2023-09-21T12:48:08.751Z,27.60
2023-09-21T12:50:35.991Z,27.60
2023-09-21T12:53:07.035Z,27.50
2023-09-21T12:55:35.551Z,27.50
2023-09-21T12:58:02.863Z,27.50
2023-09-21T13:00:30.595Z,27.40
2023-09-21T13:02:57.774Z,27.40
2023-09-21T13:05:24.783Z,27.40
2023-09-21T13:07:53.578Z,27.40
2023-09-21T13:10:20.748Z,27.50
2023-09-21T13:12:48.254Z,27.30
2023-09-21T13:15:17.976Z,27.30
2023-09-21T13:17:45.037Z,27.40
2023-09-21T13:20:18.490Z,27.30
2023-09-21T13:22:45.920Z,27.30
2023-09-21T13:25:13.552Z,27.30
2023-09-21T13:27:40.975Z,27.40
2023-09-21T13:30:12.466Z,27.40
2023-09-21T13:32:39.233Z,27.40
2023-09-21T13:35:06.584Z,27.50
2023-09-21T13:37:33.642Z,27.50
2023-09-21T13:40:00.494Z,27.50
2023-09-21T13:42:31.122Z,27.50
2023-09-21T13:45:00.431Z,27.50
2023-09-21T13:47:28.101Z,27.50
2023-09-21T13:49:54.894Z,27.50
2023-09-21T13:52:21.987Z,27.60
2023-09-21T13:54:58.907Z,27.60
2023-09-21T13:57:32.775Z,27.50
2023-09-21T13:59:59.633Z,27.50
2023-09-21T14:02:28.539Z,27.60
2023-09-21T14:04:55.629Z,27.60
2023-09-21T14:07:22.568Z,27.60
2023-09-21T14:09:49.280Z,27.50
2023-09-21T14:12:16.144Z,27.60
2023-09-21T14:14:42.959Z,27.60
2023-09-21T14:17:09.850Z,27.60
2023-09-21T14:19:36.966Z,27.60
2023-09-21T14:22:04.014Z,27.60
2023-09-21T14:24:30.940Z,27.60
2023-09-21T14:26:57.777Z,27.60
2023-09-21T14:29:24.482Z,27.60
2023-09-21T14:31:51.331Z,27.60
2023-09-21T14:34:18.074Z,27.60
2023-09-21T14:36:45.250Z,27.60
2023-09-21T14:39:11.962Z,27.60
2023-09-21T14:41:38.789Z,27.50
2023-09-21T14:44:05.732Z,27.50
2023-09-21T14:46:32.541Z,27.50
2023-09-21T14:48:59.231Z,27.40
2023-09-21T14:51:26.147Z,27.40
2023-09-21T14:53:55.301Z,27.30
2023-09-21T14:56:22.128Z,27.30
2023-09-21T14:58:48.846Z,27.20
2023-09-21T15:01:15.635Z,27.10
2023-09-21T15:03:42.579Z,27.00
2023-09-21T15:06:09.753Z,27.00
2023-09-21T15:08:37.877Z,26.90
2023-09-21T15:11:04.969Z,26.80
2023-09-21T15:13:32.118Z,26.80
2023-09-21T15:15:59.169Z,26.70
2023-09-21T15:18:26.133Z,26.60
2023-09-21T15:20:53.040Z,26.50
2023-09-21T15:23:20.927Z,26.50
2023-09-21T15:25:48.377Z,26.40
2023-09-21T15:28:15.103Z,26.40
2023-09-21T15:30:42.050Z,26.30
2023-09-21T15:33:22.867Z,26.20
2023-09-21T15:35:55.622Z,26.20
2023-09-21T15:38:22.378Z,26.10
2023-09-21T15:40:49.092Z,26.20
2023-09-21T15:43:15.845Z,26.00
2023-09-21T15:45:42.656Z,26.00
2023-09-21T15:48:09.590Z,25.90
2023-09-21T15:50:39.116Z,25.90
2023-09-21T15:53:06.722Z,25.80
2023-09-21T15:55:33.488Z,25.70
2023-09-21T15:58:02.849Z,25.60
2023-09-21T16:00:31.508Z,25.60
2023-09-21T16:02:58.914Z,25.50
2023-09-21T16:05:26.318Z,25.40
2023-09-21T16:07:53.026Z,25.30
2023-09-21T16:10:19.675Z,25.10
2023-09-21T16:12:46.510Z,25.00
2023-09-21T16:15:13.268Z,24.90
2023-09-21T16:17:40.950Z,24.70
2023-09-21T16:20:08.526Z,24.60
2023-09-21T16:22:35.528Z,24.50
2023-09-21T16:25:03.141Z,24.30
2023-09-21T16:27:30.275Z,24.20
2023-09-21T16:29:57.007Z,24.10
2023-09-21T16:32:23.713Z,24.10
2023-09-21T16:34:50.480Z,23.90
2023-09-21T16:37:17.223Z,23.90
2023-09-21T16:39:43.895Z,23.80
2023-09-21T16:42:10.870Z,23.70
2023-09-21T16:44:37.698Z,23.60
2023-09-21T16:47:04.434Z,23.50
2023-09-21T16:49:31.243Z,23.50
2023-09-21T16:51:59.372Z,23.40
2023-09-21T16:54:26.228Z,23.30
2023-09-21T16:56:53.123Z,23.30
2023-09-21T16:59:21.077Z,23.20
2023-09-21T17:01:49.132Z,23.20
2023-09-21T17:04:16.370Z,23.10
2023-09-21T17:06:44.048Z,23.10
2023-09-21T17:09:10.854Z,23.00
2023-09-21T17:11:37.780Z,22.90
2023-09-21T17:14:04.625Z,22.90
2023-09-21T17:16:31.673Z,22.80
2023-09-21T17:19:00.366Z,22.80
2023-09-21T17:21:28.725Z,22.70
2023-09-21T17:23:55.504Z,22.60
2023-09-21T17:26:22.370Z,22.60
2023-09-21T17:28:49.095Z,22.50
2023-09-21T17:31:16.550Z,22.50
2023-09-21T17:33:44.462Z,22.40
2023-09-21T17:36:14.984Z,22.40
2023-09-21T17:38:43.412Z,22.30
2023-09-21T17:41:10.219Z,22.30
2023-09-21T17:43:36.914Z,22.20
2023-09-21T17:46:03.854Z,22.10
2023-09-21T17:48:31.933Z,22.10
2023-09-21T17:53:29.680Z,21.90
2023-09-21T17:55:57.201Z,21.90
2023-09-21T17:58:24.431Z,21.80
2023-09-21T18:00:52.665Z,21.80
2023-09-21T18:03:21.117Z,21.80
2023-09-21T18:05:48.069Z,21.60
2023-09-21T18:08:14.798Z,21.60
2023-09-21T18:10:41.541Z,21.60
2023-09-21T18:13:08.309Z,21.50
2023-09-21T18:15:35.363Z,21.40
2023-09-21T18:18:04.358Z,21.40
2023-09-21T18:20:31.303Z,21.40
2023-09-21T18:22:59.170Z,21.40
2023-09-21T18:25:27.110Z,21.30
2023-09-21T18:27:55.628Z,21.30
2023-09-21T18:30:24.250Z,21.30
2023-09-21T18:32:51.543Z,21.20
2023-09-21T18:35:20.315Z,21.20
2023-09-21T18:37:48.778Z,21.20
2023-09-21T18:40:15.990Z,21.20
2023-09-21T18:42:42.872Z,21.20
2023-09-21T18:45:11.729Z,21.20
2023-09-21T18:47:38.750Z,21.10
2023-09-21T18:50:08.439Z,21.10
2023-09-21T18:52:36.890Z,21.10
2023-09-21T18:55:06.424Z,21.10
2023-09-21T18:57:33.235Z,21.10
2023-09-21T19:00:02.514Z,21.20
2023-09-21T19:02:29.360Z,21.10
2023-09-21T19:04:56.320Z,21.10
2023-09-21T19:07:23.098Z,21.10
2023-09-21T19:09:49.839Z,21.20
2023-09-21T19:12:17.231Z,21.10
2023-09-21T19:14:44.740Z,21.10
2023-09-21T19:17:11.514Z,21.10
2023-09-21T19:19:38.349Z,21.10
2023-09-21T19:22:08.172Z,21.10
2023-09-21T19:24:35.895Z,21.10
2023-09-21T19:27:03.339Z,21.10
2023-09-21T19:29:30.051Z,21.10
2023-09-21T19:31:57.045Z,21.10
2023-09-21T19:34:23.775Z,21.10
2023-09-21T19:36:50.578Z,21.10
2023-09-21T19:39:17.769Z,21.10
2023-09-21T19:41:45.053Z,21.10
2023-09-21T19:44:12.634Z,21.10
2023-09-21T19:46:39.755Z,21.10
2023-09-21T19:49:06.568Z,21.10
2023-09-21T19:51:33.308Z,21.10
2023-09-21T19:54:00.821Z,21.20
2023-09-21T19:56:28.337Z,21.20
2023-09-21T19:58:56.365Z,21.20
2023-09-21T20:01:23.169Z,21.20
2023-09-21T20:03:50.240Z,21.20
2023-09-21T20:06:17.380Z,21.20
2023-09-21T20:08:44.094Z,21.20
2023-09-21T20:11:13.913Z,21.20
2023-09-21T20:13:40.643Z,21.20
2023-09-21T20:16:07.504Z,21.20
2023-09-21T20:18:34.703Z,21.30
2023-09-21T20:21:03.779Z,21.20
2023-09-21T20:23:30.581Z,21.20
2023-09-21T20:25:57.414Z,21.20
2023-09-21T20:28:25.789Z,21.30
2023-09-21T20:30:56.103Z,21.30
2023-09-21T20:33:23.134Z,21.30
2023-09-21T20:35:50.390Z,21.30
2023-09-21T20:38:18.469Z,21.30
2023-09-21T20:40:45.400Z,21.30
2023-09-21T20:43:12.894Z,21.20
2023-09-21T20:45:39.805Z,21.20
2023-09-21T20:48:07.416Z,21.20
2023-09-21T20:50:34.298Z,21.20
2023-09-21T20:53:01.080Z,21.20
2023-09-21T20:55:28.615Z,21.20
2023-09-21T20:57:55.326Z,21.20
2023-09-21T21:00:23.962Z,21.20
2023-09-21T21:02:51.025Z,21.10
2023-09-21T21:05:17.803Z,21.10
2023-09-21T21:07:44.812Z,21.10
2023-09-21T21:10:11.826Z,21.00
2023-09-21T21:12:39.917Z,21.00
2023-09-21T21:15:07.388Z,21.00
2023-09-21T21:17:34.195Z,20.90
2023-09-21T21:20:04.201Z,20.90
2023-09-21T21:22:31.054Z,20.90
2023-09-21T21:25:00.142Z,20.80
2023-09-21T21:27:28.130Z,20.80
2023-09-21T21:29:54.831Z,20.80
2023-09-21T21:32:23.543Z,20.70
2023-09-21T21:34:50.348Z,20.70
2023-09-21T21:37:17.171Z,20.70
2023-09-21T21:39:43.966Z,20.70
2023-09-21T21:42:11.052Z,20.60
2023-09-21T21:44:38.632Z,20.60
2023-09-21T21:47:06.213Z,20.60
2023-09-21T21:49:33.110Z,20.50
2023-09-21T21:52:03.066Z,20.50
2023-09-21T21:54:30.040Z,20.50
2023-09-21T21:56:57.175Z,20.50
2023-09-21T21:59:23.962Z,20.40
2023-09-21T22:01:50.740Z,20.40
2023-09-21T22:04:17.861Z,20.40
2023-09-21T22:06:44.794Z,20.30
2023-09-21T22:09:12.235Z,20.30
2023-09-21T22:11:39.091Z,20.30
2023-09-21T22:14:05.895Z,20.30
2023-09-21T22:16:32.891Z,20.30
2023-09-21T22:19:00.561Z,20.20
2023-09-21T22:21:28.122Z,20.20
2023-09-21T22:23:55.813Z,20.10
2023-09-21T22:26:22.971Z,20.10
2023-09-21T22:28:49.679Z,20.10
2023-09-21T22:31:17.128Z,20.10
2023-09-21T22:33:44.428Z,20.10
2023-09-21T22:36:11.776Z,20.10
2023-09-21T22:38:39.325Z,20.00
2023-09-21T22:41:06.193Z,20.00
2023-09-21T22:43:33.330Z,20.00
2023-09-21T22:46:05.033Z,20.10
2023-09-21T22:48:32.070Z,20.00
2023-09-21T22:50:58.829Z,20.00
2023-09-21T22:53:25.864Z,19.90
2023-09-21T22:55:53.602Z,19.90
2023-09-21T22:58:20.390Z,19.90
2023-09-21T23:00:59.208Z,19.90
2023-09-21T23:03:26.795Z,19.90
2023-09-21T23:05:53.977Z,19.90
2023-09-21T23:08:21.793Z,19.90
2023-09-21T23:10:52.271Z,19.90
2023-09-21T23:13:19.089Z,19.90
2023-09-21T23:15:46.105Z,19.80
2023-09-21T23:18:17.525Z,19.80
2023-09-21T23:20:44.387Z,19.80
2023-09-21T23:23:12.631Z,19.80
2023-09-21T23:25:41.107Z,19.80
2023-09-21T23:28:07.770Z,19.80
2023-09-21T23:30:39.704Z,19.80
2023-09-21T23:33:06.548Z,19.80
2023-09-21T23:35:33.643Z,19.80
2023-09-21T23:38:01.798Z,19.70
2023-09-21T23:40:28.761Z,19.70
2023-09-21T23:42:55.585Z,19.80
2023-09-21T23:45:22.445Z,19.70
2023-09-21T23:47:49.124Z,19.70
2023-09-21T23:50:15.901Z,19.70
2023-09-21T23:52:45.651Z,19.70
2023-09-21T23:55:12.873Z,19.70
2023-09-21T23:57:39.810Z,19.70
